createdAt,value
2023-04-08T00:00:30.457Z,9.83
2023-04-08T00:02:58.790Z,9.10
2023-04-08T00:05:27.090Z,9.53
2023-04-08T00:07:55.412Z,9.10
2023-04-08T00:10:24.949Z,9.07
2023-04-08T00:12:53.277Z,9.83
2023-04-08T00:15:22.930Z,9.80
2023-04-08T00:17:51.349Z,11.30
2023-04-08T00:20:19.682Z,9.77
2023-04-08T00:22:47.989Z,8.67
2023-04-08T00:25:16.916Z,9.47
2023-04-08T00:27:45.323Z,9.73
2023-04-08T00:30:13.619Z,8.90
2023-04-08T00:32:43.721Z,9.20
2023-04-08T00:35:12.893Z,8.57
2023-04-08T00:37:41.412Z,8.53
2023-04-08T00:40:10.168Z,8.80
2023-04-08T00:42:38.407Z,7.93
2023-04-08T00:45:07.051Z,8.77
2023-04-08T00:47:35.546Z,8.30
2023-04-08T00:50:05.305Z,10.37
2023-04-08T00:52:33.543Z,8.47
2023-04-08T00:55:01.789Z,8.70
2023-04-08T00:57:30.130Z,8.20
2023-04-08T00:59:58.398Z,7.77
2023-04-08T01:02:29.772Z,7.77
2023-04-08T01:05:02.190Z,8.47
2023-04-08T01:07:34.251Z,8.40
2023-04-08T01:10:05.053Z,7.93
2023-04-08T01:12:34.539Z,9.13
2023-04-08T01:15:05.113Z,7.80
2023-04-08T01:17:33.944Z,8.03
2023-04-08T01:20:04.203Z,7.70
2023-04-08T01:22:39.040Z,7.43
2023-04-08T01:25:08.916Z,8.33
2023-04-08T01:27:41.307Z,9.00
2023-04-08T01:30:10.117Z,7.37
2023-04-08T01:32:38.535Z,7.93
2023-04-08T01:35:07.935Z,8.17
2023-04-08T01:37:36.407Z,8.00
2023-04-08T01:40:05.048Z,8.27
2023-04-08T01:42:34.331Z,8.77
2023-04-08T01:45:05.193Z,8.83
2023-04-08T01:47:33.609Z,10.17
2023-04-08T01:50:03.257Z,10.47
2023-04-08T01:52:32.019Z,10.20
2023-04-08T01:55:01.218Z,9.90
2023-04-08T01:57:30.401Z,9.70
2023-04-08T02:00:00.263Z,10.70
2023-04-08T02:02:30.567Z,11.67
2023-04-08T02:05:00.302Z,11.33
2023-04-08T02:07:28.521Z,12.70
2023-04-08T02:09:57.761Z,10.70
2023-04-08T02:12:26.423Z,11.00
2023-04-08T02:14:55.359Z,10.93
2023-04-08T02:17:27.084Z,10.80
2023-04-08T02:20:00.496Z,10.10
2023-04-08T02:22:31.788Z,9.47
2023-04-08T02:25:01.216Z,9.60
2023-04-08T02:27:30.218Z,9.90
2023-04-08T02:29:59.530Z,9.63
2023-04-08T02:32:30.075Z,9.40
2023-04-08T02:34:59.824Z,9.20
2023-04-08T02:37:28.093Z,8.53
2023-04-08T02:39:56.282Z,8.57
2023-04-08T02:42:24.466Z,8.67
2023-04-08T02:44:53.048Z,8.23
2023-04-08T02:47:21.227Z,7.53
2023-04-08T02:49:52.440Z,8.03
2023-04-08T02:52:22.459Z,7.23
2023-04-08T02:54:50.726Z,7.87
2023-04-08T02:57:18.922Z,7.50
2023-04-08T02:59:47.133Z,7.67
2023-04-08T03:02:15.399Z,7.67
2023-04-08T03:04:43.625Z,7.93
2023-04-08T03:07:11.887Z,7.97
2023-04-08T03:09:42.066Z,7.67
2023-04-08T03:12:10.269Z,7.80
2023-04-08T03:14:38.459Z,6.87
2023-04-08T03:17:06.715Z,7.37
2023-04-08T03:19:35.005Z,7.73
2023-04-08T03:22:03.206Z,7.30
2023-04-08T03:24:31.462Z,6.50
2023-04-08T03:27:01.368Z,6.70
2023-04-08T03:29:29.598Z,6.63
2023-04-08T03:31:57.967Z,6.50
2023-04-08T03:34:26.145Z,6.60
2023-04-08T03:36:54.326Z,6.53
2023-04-08T03:39:22.494Z,6.37
2023-04-08T03:41:50.658Z,6.33
2023-04-08T03:44:20.193Z,5.90
2023-04-08T03:46:48.369Z,6.40
2023-04-08T03:49:16.553Z,6.57
2023-04-08T03:51:44.746Z,6.63
2023-04-08T03:54:12.909Z,6.23
2023-04-08T03:56:41.110Z,6.20
2023-04-08T03:59:09.291Z,6.83
2023-04-08T04:01:40.581Z,7.20
2023-04-08T04:04:10.311Z,6.80
2023-04-08T04:06:38.740Z,7.07
2023-04-08T04:09:07.009Z,7.60
2023-04-08T04:11:36.329Z,6.60
2023-04-08T04:14:04.566Z,6.63
2023-04-08T04:16:33.185Z,6.90
2023-04-08T04:19:02.970Z,6.80
2023-04-08T04:21:31.289Z,6.53
2023-04-08T04:23:59.452Z,6.80
2023-04-08T04:26:27.679Z,6.93
2023-04-08T04:28:55.893Z,6.63
2023-04-08T04:31:26.373Z,6.77
2023-04-08T04:33:54.829Z,6.43
2023-04-08T04:36:24.411Z,6.43
2023-04-08T04:38:52.959Z,5.93
2023-04-08T04:41:21.744Z,6.40
2023-04-08T04:43:49.965Z,6.10
2023-04-08T04:46:18.200Z,6.43
2023-04-08T04:48:46.410Z,6.10
2023-04-08T04:51:14.584Z,7.40
2023-04-08T04:53:44.117Z,6.03
2023-04-08T04:56:12.350Z,5.97
2023-04-08T04:58:40.594Z,6.40
2023-04-08T05:01:08.808Z,6.30
2023-04-08T05:03:37.060Z,5.97
2023-04-08T05:06:05.403Z,7.67
2023-04-08T05:08:33.563Z,6.20
2023-04-08T05:11:03.134Z,6.00
2023-04-08T05:13:31.366Z,6.10
2023-04-08T05:15:59.612Z,6.07
2023-04-08T05:18:27.884Z,6.50
2023-04-08T05:20:56.144Z,5.97
2023-04-08T05:23:24.362Z,6.17
2023-04-08T05:25:52.604Z,6.10
2023-04-08T05:28:22.234Z,6.23
2023-04-08T05:30:52.089Z,6.00
2023-04-08T05:33:20.478Z,5.63
2023-04-08T05:35:48.745Z,5.70
2023-04-08T05:38:17.011Z,6.20
2023-04-08T05:40:45.264Z,6.07
2023-04-08T05:43:13.478Z,6.20
2023-04-08T05:45:43.118Z,5.97
2023-04-08T05:48:11.393Z,5.97
2023-04-08T05:50:39.645Z,6.00
2023-04-08T05:53:07.954Z,6.10
2023-04-08T05:55:36.304Z,6.10
2023-04-08T05:58:04.556Z,5.60
2023-04-08T06:00:32.859Z,6.87
2023-04-08T06:03:02.635Z,6.80
2023-04-08T06:05:31.030Z,7.40
2023-04-08T06:07:59.249Z,7.20
2023-04-08T06:10:27.490Z,6.10
2023-04-08T06:12:55.859Z,6.33
2023-04-08T06:15:24.105Z,5.70
2023-04-08T06:17:52.457Z,5.90
2023-04-08T06:20:22.062Z,5.93
2023-04-08T06:22:50.493Z,5.83
2023-04-08T06:25:18.816Z,5.60
2023-04-08T06:27:48.370Z,5.40
2023-04-08T06:30:17.321Z,5.60
2023-04-08T06:32:47.335Z,6.13
2023-04-08T06:35:15.756Z,5.83
2023-04-08T06:37:45.479Z,5.97
2023-04-08T06:40:13.818Z,5.80
2023-04-08T06:42:43.111Z,6.10
2023-04-08T06:45:12.038Z,5.53
2023-04-08T06:47:40.497Z,5.63
2023-04-08T06:50:09.246Z,6.90
2023-04-08T06:52:37.571Z,8.63
2023-04-08T06:55:07.675Z,8.37
2023-04-08T06:57:35.954Z,7.57
2023-04-08T07:00:04.327Z,7.10
2023-04-08T07:02:32.833Z,9.47
2023-04-08T07:05:01.107Z,5.90
2023-04-08T07:07:29.362Z,6.67
2023-04-08T07:09:57.641Z,6.13
2023-04-08T07:12:27.210Z,5.70
2023-04-08T07:14:55.732Z,6.13
2023-04-08T07:17:24.004Z,6.00
2023-04-08T07:19:52.355Z,6.40
2023-04-08T07:22:20.638Z,6.00
2023-04-08T07:24:49.820Z,6.27
2023-04-08T07:27:18.217Z,6.83
2023-04-08T07:29:47.823Z,7.90
2023-04-08T07:32:16.274Z,8.43
2023-04-08T07:34:44.511Z,8.70
2023-04-08T07:37:12.907Z,7.90
2023-04-08T07:39:41.340Z,7.80
2023-04-08T07:42:09.606Z,8.20
2023-04-08T07:44:38.280Z,8.00
2023-04-08T07:47:07.859Z,8.90
2023-04-08T07:49:36.673Z,8.33
2023-04-08T07:52:04.982Z,8.17
2023-04-08T07:54:34.315Z,7.57
2023-04-08T07:57:02.637Z,7.70
2023-04-08T07:59:31.208Z,8.07
2023-04-08T08:01:59.622Z,7.43
2023-04-08T08:04:29.543Z,8.10
2023-04-08T08:06:58.077Z,8.13
2023-04-08T08:09:26.407Z,7.90
2023-04-08T08:11:54.626Z,8.27
2023-04-08T08:14:22.823Z,8.20
2023-04-08T08:16:51.070Z,7.87
2023-04-08T08:19:19.318Z,8.50
2023-04-08T08:21:48.889Z,8.57
2023-04-08T08:24:17.572Z,8.70
2023-04-08T08:26:47.169Z,8.40
2023-04-08T08:29:15.592Z,8.80
2023-04-08T08:31:43.914Z,8.70
2023-04-08T08:34:12.188Z,9.30
2023-04-08T08:36:40.506Z,9.97
2023-04-08T08:39:10.102Z,9.53
2023-04-08T08:41:38.349Z,9.20
2023-04-08T08:44:07.955Z,9.40
2023-04-08T08:46:36.388Z,9.37
2023-04-08T08:49:04.730Z,9.13
2023-04-08T08:51:33.869Z,12.90
2023-04-08T08:54:04.168Z,9.13
2023-04-08T08:56:34.609Z,9.13
2023-04-08T08:59:02.818Z,9.57
2023-04-08T09:01:35.098Z,9.30
2023-04-08T09:04:15.834Z,9.07
2023-04-08T09:06:44.528Z,9.10
2023-04-08T09:09:12.748Z,9.00
2023-04-08T09:11:43.041Z,9.43
2023-04-08T09:14:21.360Z,9.87
2023-04-08T09:16:49.850Z,9.83
2023-04-08T09:19:18.174Z,9.33
2023-04-08T09:21:47.605Z,9.77
2023-04-08T09:24:29.333Z,9.70
2023-04-08T09:26:59.012Z,9.87
2023-04-08T09:29:30.581Z,10.63
2023-04-08T09:32:00.527Z,11.60
2023-04-08T09:34:32.317Z,9.77
2023-04-08T09:37:00.783Z,10.13
2023-04-08T09:39:29.035Z,10.40
2023-04-08T09:42:01.148Z,11.03
2023-04-08T09:44:31.114Z,10.57
2023-04-08T09:47:03.506Z,12.53
2023-04-08T09:49:36.499Z,9.47
2023-04-08T09:52:09.033Z,9.63
2023-04-08T09:54:44.186Z,9.20
2023-04-08T09:57:16.286Z,15.93
2023-04-08T09:59:51.299Z,9.80
2023-04-08T10:02:27.085Z,20.30
2023-04-08T10:04:56.176Z,16.33
2023-04-08T10:07:24.472Z,11.27
2023-04-08T10:09:53.397Z,8.93
2023-04-08T10:12:23.074Z,9.17
2023-04-08T10:15:06.201Z,9.20
2023-04-08T10:17:36.878Z,9.10
2023-04-08T10:20:05.472Z,9.30
2023-04-08T10:22:49.714Z,10.17
2023-04-08T10:25:30.729Z,9.60
2023-04-08T10:28:00.443Z,8.87
2023-04-08T10:30:41.276Z,10.00
2023-04-08T10:33:12.227Z,10.33
2023-04-08T10:35:42.997Z,9.50
2023-04-08T10:38:12.818Z,8.57
2023-04-08T10:40:42.518Z,9.00
2023-04-08T10:43:13.014Z,9.03
2023-04-08T10:45:41.866Z,9.90
2023-04-08T10:48:13.884Z,10.33
2023-04-08T10:50:42.449Z,8.97
2023-04-08T10:53:11.813Z,10.03
2023-04-08T10:55:40.263Z,10.30
2023-04-08T10:58:08.969Z,9.57
2023-04-08T11:00:39.478Z,9.93
2023-04-08T11:03:09.084Z,10.57
2023-04-08T11:05:38.066Z,11.57
2023-04-08T11:08:06.678Z,10.63
2023-04-08T11:10:38.793Z,9.97
2023-04-08T11:13:09.881Z,9.43
2023-04-08T11:15:40.296Z,9.30
2023-04-08T11:18:09.140Z,9.80
2023-04-08T11:20:38.365Z,9.77
2023-04-08T11:23:06.617Z,10.07
2023-04-08T11:25:34.982Z,10.50
2023-04-08T11:28:03.924Z,10.30
2023-04-08T11:30:33.678Z,10.30
2023-04-08T11:33:03.803Z,10.40
2023-04-08T11:35:32.295Z,10.47
2023-04-08T11:38:00.821Z,10.33
2023-04-08T11:40:29.082Z,10.13
2023-04-08T11:42:57.381Z,11.53
2023-04-08T11:45:25.671Z,11.60
2023-04-08T11:47:54.118Z,11.00
2023-04-08T11:50:29.881Z,11.97
2023-04-08T11:52:58.089Z,11.70
2023-04-08T11:55:27.264Z,11.30
2023-04-08T11:57:56.226Z,11.00
2023-04-08T12:00:27.915Z,11.70
2023-04-08T12:02:56.542Z,10.87
2023-04-08T12:05:24.831Z,12.43
2023-04-08T12:07:54.397Z,11.90
2023-04-08T12:10:22.697Z,11.60
2023-04-08T12:12:51.106Z,18.70
2023-04-08T12:15:19.427Z,12.60
2023-04-08T12:17:47.772Z,11.37
2023-04-08T12:20:17.338Z,11.80
2023-04-08T12:22:45.826Z,12.73
2023-04-08T12:25:15.456Z,11.57
2023-04-08T12:27:43.654Z,12.10
2023-04-08T12:30:12.963Z,12.83
2023-04-08T12:32:42.653Z,12.90
2023-04-08T12:35:11.177Z,12.67
2023-04-08T12:37:39.453Z,14.00
2023-04-08T12:40:08.431Z,12.97
2023-04-08T12:42:38.020Z,13.40
2023-04-08T12:45:06.598Z,13.60
2023-04-08T12:47:34.842Z,13.93
2023-04-08T12:50:03.153Z,16.97
2023-04-08T12:52:31.426Z,18.37
2023-04-08T12:54:59.717Z,18.13
2023-04-08T12:57:28.357Z,17.97
2023-04-08T12:59:58.166Z,17.10
2023-04-08T13:02:27.397Z,19.03
2023-04-08T13:04:55.785Z,19.27
2023-04-08T13:07:24.142Z,18.67
2023-04-08T13:09:52.369Z,17.70
2023-04-08T13:12:20.606Z,19.40
2023-04-08T13:14:48.831Z,18.40
2023-04-08T13:17:18.410Z,19.33
2023-04-08T13:19:47.435Z,18.50
2023-04-08T13:22:15.799Z,17.97
2023-04-08T13:24:44.108Z,17.97
2023-04-08T13:27:12.333Z,18.70
2023-04-08T13:29:40.617Z,18.80
2023-04-08T13:32:09.050Z,19.00
2023-04-08T13:34:38.788Z,18.50
2023-04-08T13:37:07.228Z,18.23
2023-04-08T13:39:35.536Z,17.87
2023-04-08T13:42:04.126Z,20.07
2023-04-08T13:44:33.128Z,21.03
2023-04-08T13:47:01.971Z,20.03
2023-04-08T13:49:30.547Z,19.13
2023-04-08T13:52:00.382Z,19.17
2023-04-08T13:54:28.642Z,19.57
2023-04-08T13:56:57.515Z,19.60
2023-04-08T13:59:25.919Z,19.80
2023-04-08T14:01:55.169Z,19.43
2023-04-08T14:04:23.825Z,19.63
2023-04-08T14:06:53.193Z,19.23
2023-04-08T14:09:22.792Z,18.63
2023-04-08T14:11:50.987Z,19.40
2023-04-08T14:14:19.211Z,19.77
2023-04-08T14:16:47.522Z,19.93
2023-04-08T14:19:16.447Z,19.90
2023-04-08T14:21:44.772Z,21.17
2023-04-08T14:24:13.492Z,19.97
2023-04-08T14:26:43.190Z,19.83
2023-04-08T14:29:11.759Z,20.03
2023-04-08T14:31:39.979Z,20.17
2023-04-08T14:34:08.292Z,19.53
2023-04-08T14:36:36.530Z,19.97
2023-04-08T14:39:04.797Z,18.90
2023-04-08T14:41:33.182Z,19.60
2023-04-08T14:44:02.875Z,18.90
2023-04-08T14:46:31.640Z,19.33
2023-04-08T14:49:00.905Z,20.60
2023-04-08T14:51:30.093Z,19.00
2023-04-08T14:53:58.341Z,19.53
2023-04-08T14:56:26.542Z,20.27
2023-04-08T14:58:54.718Z,20.60
2023-04-08T15:01:24.378Z,19.87
2023-04-08T15:03:52.721Z,20.70
2023-04-08T15:06:21.715Z,20.13
2023-04-08T15:08:50.384Z,20.37
2023-04-08T15:11:19.506Z,19.57
2023-04-08T15:13:47.843Z,21.00
2023-04-08T15:16:16.128Z,21.03
2023-04-08T15:18:46.029Z,20.20
2023-04-08T15:21:14.276Z,20.73
2023-04-08T15:23:43.518Z,21.17
2023-04-08T15:26:12.061Z,20.10
2023-04-08T15:28:40.684Z,20.40
2023-04-08T15:31:09.285Z,21.20
2023-04-08T15:33:41.234Z,21.00
2023-04-08T15:36:10.968Z,20.87
2023-04-08T15:38:39.936Z,23.00
2023-04-08T15:41:08.207Z,25.47
2023-04-08T15:43:36.890Z,21.83
2023-04-08T15:46:05.130Z,21.47
2023-04-08T15:48:33.844Z,22.00
2023-04-08T15:51:08.087Z,22.33
2023-04-08T15:53:37.935Z,20.60
2023-04-08T15:56:06.575Z,21.17
2023-04-08T15:58:34.874Z,20.13
2023-04-08T16:01:03.178Z,20.17
2023-04-08T16:03:31.835Z,20.50
2023-04-08T16:06:00.408Z,20.97
2023-04-08T16:08:29.041Z,19.63
2023-04-08T16:11:02.740Z,19.77
2023-04-08T16:13:31.179Z,19.93
2023-04-08T16:15:59.745Z,20.40
2023-04-08T16:18:28.208Z,20.13
2023-04-08T16:20:56.741Z,20.70
2023-04-08T16:23:25.000Z,20.43
2023-04-08T16:25:53.385Z,19.23
2023-04-08T16:28:23.044Z,20.30
2023-04-08T16:30:51.290Z,19.00
2023-04-08T16:33:19.556Z,18.90
2023-04-08T16:35:49.247Z,19.17
2023-04-08T16:38:17.533Z,19.97
2023-04-08T16:40:45.922Z,19.13
2023-04-08T16:43:14.330Z,20.47
2023-04-08T16:45:45.854Z,21.10
2023-04-08T16:48:14.159Z,21.20
2023-04-08T16:50:42.752Z,21.47
2023-04-08T16:53:11.052Z,19.80
2023-04-08T16:55:39.529Z,18.97
2023-04-08T16:58:07.758Z,18.87
2023-04-08T17:00:36.345Z,19.07
2023-04-08T17:03:06.197Z,18.10
2023-04-08T17:05:34.485Z,18.13
2023-04-08T17:08:03.091Z,18.53
2023-04-08T17:10:31.424Z,18.30
2023-04-08T17:12:59.684Z,17.57
2023-04-08T17:15:28.191Z,16.97
2023-04-08T17:17:56.591Z,17.80
2023-04-08T17:20:27.766Z,16.73
2023-04-08T17:22:56.010Z,17.60
2023-04-08T17:25:24.529Z,18.40
2023-04-08T17:27:52.749Z,19.33
2023-04-08T17:30:21.091Z,19.17
2023-04-08T17:32:49.399Z,20.00
2023-04-08T17:35:17.696Z,18.67
2023-04-08T17:37:47.337Z,18.13
2023-04-08T17:40:15.753Z,16.93
2023-04-08T17:42:43.978Z,17.87
2023-04-08T17:45:12.467Z,18.40
2023-04-08T17:47:41.233Z,17.33
2023-04-08T17:50:11.872Z,17.63
2023-04-08T17:52:40.290Z,19.30
2023-04-08T17:55:10.809Z,18.60
2023-04-08T17:57:39.123Z,20.50
2023-04-08T18:00:08.212Z,18.33
2023-04-08T18:02:37.478Z,17.47
2023-04-08T18:05:06.550Z,18.00
2023-04-08T18:07:34.840Z,18.33
2023-04-08T18:10:03.136Z,20.10
2023-04-08T18:12:32.927Z,32.80
2023-04-08T18:15:01.204Z,19.33
2023-04-08T18:17:29.516Z,20.23
2023-04-08T18:19:59.602Z,21.00
2023-04-08T18:22:27.869Z,20.37
2023-04-08T18:24:56.127Z,19.67
2023-04-08T18:27:24.354Z,19.83
2023-04-08T18:29:54.039Z,21.50
2023-04-08T18:32:22.341Z,21.60
2023-04-08T18:34:52.714Z,20.87
2023-04-08T18:37:21.666Z,21.03
2023-04-08T18:39:49.975Z,19.83
2023-04-08T18:42:18.211Z,20.67
2023-04-08T18:44:46.450Z,19.50
2023-04-08T18:47:17.116Z,20.17
2023-04-08T18:49:45.406Z,22.57
2023-04-08T18:52:14.335Z,23.00
2023-04-08T18:54:42.845Z,22.23
2023-04-08T18:57:11.114Z,21.70
2023-04-08T18:59:39.379Z,23.07
2023-04-08T19:02:07.879Z,25.33
2023-04-08T19:04:38.455Z,25.10
2023-04-08T19:07:06.792Z,24.97
2023-04-08T19:09:35.040Z,22.77
2023-04-08T19:12:03.344Z,21.60
2023-04-08T19:14:31.637Z,23.07
2023-04-08T19:16:59.996Z,21.73
2023-04-08T19:19:28.300Z,22.23
2023-04-08T19:21:58.343Z,21.33
2023-04-08T19:24:26.725Z,20.37
2023-04-08T19:26:55.060Z,20.77
2023-04-08T19:29:24.348Z,22.13
2023-04-08T19:31:52.738Z,19.37
2023-04-08T19:34:21.079Z,20.00
2023-04-08T19:36:49.313Z,20.27
2023-04-08T19:39:19.167Z,19.77
2023-04-08T19:41:47.464Z,19.57
2023-04-08T19:44:15.765Z,20.73
2023-04-08T19:46:43.989Z,19.33
2023-04-08T19:49:12.444Z,20.20
2023-04-08T19:51:40.934Z,20.87
2023-04-08T19:54:09.361Z,20.17
2023-04-08T19:56:39.456Z,20.93
2023-04-08T19:59:07.835Z,20.87
2023-04-08T20:01:36.419Z,21.10
2023-04-08T20:04:04.788Z,20.60
2023-04-08T20:06:33.606Z,20.93
2023-04-08T20:09:05.584Z,21.33
2023-04-08T20:11:34.150Z,20.73
2023-04-08T20:14:04.731Z,20.97
2023-04-08T20:16:33.088Z,22.77
2023-04-08T20:19:01.426Z,21.93
2023-04-08T20:21:29.668Z,21.80
2023-04-08T20:23:57.932Z,21.70
2023-04-08T20:26:26.153Z,20.67
2023-04-08T20:28:57.049Z,21.67
2023-04-08T20:31:28.253Z,22.17
2023-04-08T20:33:56.571Z,20.57
2023-04-08T20:36:25.195Z,21.10
2023-04-08T20:38:54.886Z,21.30
2023-04-08T20:41:23.951Z,21.83
2023-04-08T20:43:52.533Z,21.20
2023-04-08T20:46:20.821Z,20.50
2023-04-08T20:48:50.834Z,21.90
2023-04-08T20:51:19.252Z,20.20
2023-04-08T20:53:48.299Z,18.13
2023-04-08T20:56:16.533Z,18.00
2023-04-08T20:58:44.845Z,19.23
2023-04-08T21:01:13.187Z,18.23
2023-04-08T21:03:41.643Z,18.40
2023-04-08T21:06:16.852Z,18.33
2023-04-08T21:08:45.090Z,19.17
2023-04-08T21:11:13.463Z,19.40
2023-04-08T21:13:41.856Z,18.17
2023-04-08T21:16:10.353Z,18.33
2023-04-08T21:18:40.014Z,18.70
2023-04-08T21:21:08.235Z,18.37
2023-04-08T21:23:37.763Z,18.90
2023-04-08T21:26:11.844Z,18.83
2023-04-08T21:28:40.832Z,19.50
2023-04-08T21:31:09.433Z,17.83
2023-04-08T21:33:37.694Z,17.43
2023-04-08T21:36:06.896Z,18.13
2023-04-08T21:38:35.179Z,20.07
2023-04-08T21:41:04.755Z,20.10
2023-04-08T21:43:33.130Z,20.23
2023-04-08T21:46:01.409Z,19.87
2023-04-08T21:48:29.633Z,19.80
2023-04-08T21:50:57.922Z,19.10
2023-04-08T21:53:26.321Z,19.90
2023-04-08T21:55:54.554Z,19.87
2023-04-08T21:58:24.137Z,20.10
2023-04-08T22:00:53.117Z,20.17
2023-04-08T22:03:21.758Z,21.23
2023-04-08T22:05:50.064Z,21.93
2023-04-08T22:08:18.256Z,21.00
2023-04-08T22:10:46.751Z,22.60
2023-04-08T22:13:17.364Z,22.23
2023-04-08T22:15:47.035Z,23.17
2023-04-08T22:18:15.510Z,21.43
2023-04-08T22:20:43.751Z,22.47
2023-04-08T22:23:11.984Z,22.90
2023-04-08T22:25:40.468Z,22.63
2023-04-08T22:28:08.696Z,21.70
2023-04-08T22:30:36.979Z,22.83
2023-04-08T22:33:06.661Z,21.57
2023-04-08T22:35:34.910Z,23.10
2023-04-08T22:38:03.261Z,21.53
2023-04-08T22:40:31.450Z,20.63
2023-04-08T22:42:59.680Z,21.83
2023-04-08T22:45:27.919Z,22.30
2023-04-08T22:47:56.304Z,21.43
2023-04-08T22:50:26.263Z,20.77
2023-04-08T22:52:54.511Z,21.47
2023-04-08T22:55:22.728Z,21.17
2023-04-08T22:57:51.120Z,21.70
2023-04-08T23:00:19.536Z,22.47
2023-04-08T23:02:47.903Z,21.43
2023-04-08T23:05:16.219Z,22.23
2023-04-08T23:07:45.771Z,22.20
2023-04-08T23:10:13.977Z,22.27
2023-04-08T23:12:42.215Z,21.57
2023-04-08T23:15:10.745Z,21.97
2023-04-08T23:17:38.930Z,20.97
2023-04-08T23:20:07.863Z,20.87
2023-04-08T23:22:36.274Z,21.30
2023-04-08T23:25:06.109Z,20.57
2023-04-08T23:27:34.291Z,20.10
2023-04-08T23:30:05.434Z,20.60
2023-04-08T23:32:33.839Z,20.20
2023-04-08T23:35:02.156Z,19.57
2023-04-08T23:37:31.082Z,20.13
2023-04-08T23:39:59.283Z,19.67
2023-04-08T23:42:29.057Z,20.30
2023-04-08T23:44:57.325Z,19.90
2023-04-08T23:47:25.718Z,19.87
2023-04-08T23:49:54.134Z,20.37
2023-04-08T23:52:22.614Z,20.90
2023-04-08T23:54:51.632Z,20.40
2023-04-08T23:57:20.686Z,20.53
2023-04-08T23:59:50.393Z,19.30
